sensor_id;sensor_type;location;lat;lon;timestamp;P1;durP1;ratioP1;P2;durP2;ratioP2
24559;SDS011;12727;49.934;8.656;2023-11-19T00:00:24;14.18;;;9.00;;
24559;SDS011;12727;49.934;8.656;2023-11-19T00:02:50;13.45;;;9.15;;
24559;SDS011;12727;49.934;8.656;2023-11-19T00:05:16;12.35;;;9.05;;
24559;SDS011;12727;49.934;8.656;2023-11-19T00:07:41;13.30;;;8.93;;
24559;SDS011;12727;49.934;8.656;2023-11-19T00:10:11;12.80;;;9.23;;
24559;SDS011;12727;49.934;8.656;2023-11-19T00:12:38;14.02;;;10.13;;
24559;SDS011;12727;49.934;8.656;2023-11-19T00:15:06;12.77;;;10.13;;
24559;SDS011;12727;49.934;8.656;2023-11-19T00:17:36;13.73;;;9.93;;
24559;SDS011;12727;49.934;8.656;2023-11-19T00:20:06;13.55;;;10.48;;
24559;SDS011;12727;49.934;8.656;2023-11-19T00:22:32;14.52;;;10.68;;
24559;SDS011;12727;49.934;8.656;2023-11-19T00:24:57;13.60;;;9.95;;
24559;SDS011;12727;49.934;8.656;2023-11-19T00:27:24;12.00;;;9.23;;
24559;SDS011;12727;49.934;8.656;2023-11-19T00:29:50;14.15;;;9.27;;
24559;SDS011;12727;49.934;8.656;2023-11-19T00:32:15;11.55;;;9.05;;
24559;SDS011;12727;49.934;8.656;2023-11-19T00:34:43;11.55;;;9.32;;
24559;SDS011;12727;49.934;8.656;2023-11-19T00:37:09;9.52;;;8.05;;
24559;SDS011;12727;49.934;8.656;2023-11-19T00:39:35;12.82;;;8.60;;
24559;SDS011;12727;49.934;8.656;2023-11-19T00:42:01;9.65;;;8.00;;
24559;SDS011;12727;49.934;8.656;2023-11-19T00:44:26;11.90;;;8.10;;
24559;SDS011;12727;49.934;8.656;2023-11-19T00:46:52;10.15;;;7.47;;
24559;SDS011;12727;49.934;8.656;2023-11-19T00:49:17;8.98;;;7.50;;
24559;SDS011;12727;49.934;8.656;2023-11-19T00:51:43;10.27;;;7.50;;
24559;SDS011;12727;49.934;8.656;2023-11-19T00:54:10;10.10;;;7.35;;
24559;SDS011;12727;49.934;8.656;2023-11-19T00:56:36;8.20;;;7.28;;
24559;SDS011;12727;49.934;8.656;2023-11-19T00:59:02;10.77;;;7.18;;
24559;SDS011;12727;49.934;8.656;2023-11-19T01:01:29;8.90;;;6.63;;
24559;SDS011;12727;49.934;8.656;2023-11-19T01:03:55;11.75;;;7.20;;
24559;SDS011;12727;49.934;8.656;2023-11-19T01:06:28;10.18;;;6.90;;
24559;SDS011;12727;49.934;8.656;2023-11-19T01:08:55;7.95;;;6.88;;
24559;SDS011;12727;49.934;8.656;2023-11-19T01:11:22;8.13;;;6.82;;
24559;SDS011;12727;49.934;8.656;2023-11-19T01:13:48;8.77;;;6.93;;
24559;SDS011;12727;49.934;8.656;2023-11-19T01:16:14;9.10;;;7.18;;
24559;SDS011;12727;49.934;8.656;2023-11-19T01:18:40;11.45;;;7.32;;
24559;SDS011;12727;49.934;8.656;2023-11-19T01:21:06;10.48;;;7.40;;
24559;SDS011;12727;49.934;8.656;2023-11-19T01:23:32;10.68;;;7.32;;
24559;SDS011;12727;49.934;8.656;2023-11-19T01:25:59;8.90;;;6.88;;
24559;SDS011;12727;49.934;8.656;2023-11-19T01:28:24;7.68;;;6.45;;
24559;SDS011;12727;49.934;8.656;2023-11-19T01:30:50;8.50;;;5.70;;
24559;SDS011;12727;49.934;8.656;2023-11-19T01:33:16;9.07;;;6.65;;
24559;SDS011;12727;49.934;8.656;2023-11-19T01:35:41;7.25;;;5.88;;
24559;SDS011;12727;49.934;8.656;2023-11-19T01:38:07;7.65;;;6.20;;
24559;SDS011;12727;49.934;8.656;2023-11-19T01:40:35;9.43;;;6.10;;
24559;SDS011;12727;49.934;8.656;2023-11-19T01:43:04;8.45;;;5.63;;
24559;SDS011;12727;49.934;8.656;2023-11-19T01:45:30;8.73;;;5.65;;
24559;SDS011;12727;49.934;8.656;2023-11-19T01:47:57;7.32;;;5.40;;
24559;SDS011;12727;49.934;8.656;2023-11-19T01:50:25;5.85;;;4.95;;
24559;SDS011;12727;49.934;8.656;2023-11-19T01:52:54;7.10;;;5.07;;
24559;SDS011;12727;49.934;8.656;2023-11-19T01:55:22;4.95;;;4.20;;
24559;SDS011;12727;49.934;8.656;2023-11-19T01:57:50;6.65;;;4.13;;
24559;SDS011;12727;49.934;8.656;2023-11-19T02:00:18;5.38;;;4.38;;
24559;SDS011;12727;49.934;8.656;2023-11-19T02:02:45;5.35;;;4.10;;
24559;SDS011;12727;49.934;8.656;2023-11-19T02:05:11;7.47;;;4.65;;
24559;SDS011;12727;49.934;8.656;2023-11-19T02:07:40;5.85;;;5.15;;
24559;SDS011;12727;49.934;8.656;2023-11-19T02:10:06;5.15;;;4.53;;
24559;SDS011;12727;49.934;8.656;2023-11-19T02:12:37;4.32;;;3.58;;
24559;SDS011;12727;49.934;8.656;2023-11-19T02:15:08;5.10;;;3.65;;
24559;SDS011;12727;49.934;8.656;2023-11-19T02:17:34;4.25;;;2.97;;
24559;SDS011;12727;49.934;8.656;2023-11-19T02:20:02;3.53;;;2.70;;
24559;SDS011;12727;49.934;8.656;2023-11-19T02:22:36;4.63;;;3.10;;
24559;SDS011;12727;49.934;8.656;2023-11-19T02:25:07;3.65;;;2.90;;
24559;SDS011;12727;49.934;8.656;2023-11-19T02:30:16;3.85;;;3.10;;
24559;SDS011;12727;49.934;8.656;2023-11-19T02:32:42;3.38;;;2.97;;
24559;SDS011;12727;49.934;8.656;2023-11-19T02:35:07;3.92;;;3.17;;
24559;SDS011;12727;49.934;8.656;2023-11-19T02:37:34;4.00;;;3.05;;
24559;SDS011;12727;49.934;8.656;2023-11-19T02:39:59;3.75;;;2.90;;
24559;SDS011;12727;49.934;8.656;2023-11-19T02:42:29;3.40;;;2.78;;
24559;SDS011;12727;49.934;8.656;2023-11-19T02:44:55;4.45;;;3.10;;
24559;SDS011;12727;49.934;8.656;2023-11-19T02:47:20;3.85;;;2.88;;
24559;SDS011;12727;49.934;8.656;2023-11-19T02:49:48;5.10;;;2.75;;
24559;SDS011;12727;49.934;8.656;2023-11-19T02:52:14;3.58;;;3.15;;
24559;SDS011;12727;49.934;8.656;2023-11-19T02:54:40;3.65;;;2.80;;
24559;SDS011;12727;49.934;8.656;2023-11-19T02:57:07;3.33;;;2.88;;
24559;SDS011;12727;49.934;8.656;2023-11-19T02:59:35;4.30;;;2.90;;
24559;SDS011;12727;49.934;8.656;2023-11-19T03:02:06;3.83;;;3.30;;
24559;SDS011;12727;49.934;8.656;2023-11-19T03:04:36;3.53;;;2.70;;
24559;SDS011;12727;49.934;8.656;2023-11-19T03:07:05;3.67;;;3.00;;
24559;SDS011;12727;49.934;8.656;2023-11-19T03:09:32;4.32;;;2.63;;
24559;SDS011;12727;49.934;8.656;2023-11-19T03:11:58;3.80;;;3.00;;
24559;SDS011;12727;49.934;8.656;2023-11-19T03:14:24;3.22;;;2.75;;
24559;SDS011;12727;49.934;8.656;2023-11-19T03:16:49;3.40;;;3.10;;
24559;SDS011;12727;49.934;8.656;2023-11-19T03:19:15;4.18;;;3.50;;
24559;SDS011;12727;49.934;8.656;2023-11-19T03:21:41;4.65;;;3.75;;
24559;SDS011;12727;49.934;8.656;2023-11-19T03:24:07;4.00;;;3.42;;
24559;SDS011;12727;49.934;8.656;2023-11-19T03:26:33;4.15;;;3.42;;
24559;SDS011;12727;49.934;8.656;2023-11-19T03:28:59;4.88;;;3.25;;
24559;SDS011;12727;49.934;8.656;2023-11-19T03:31:25;3.35;;;2.90;;
24559;SDS011;12727;49.934;8.656;2023-11-19T03:33:51;3.63;;;3.33;;
24559;SDS011;12727;49.934;8.656;2023-11-19T03:36:16;4.28;;;3.00;;
24559;SDS011;12727;49.934;8.656;2023-11-19T03:38:42;3.30;;;3.00;;
24559;SDS011;12727;49.934;8.656;2023-11-19T03:41:11;3.53;;;3.03;;
24559;SDS011;12727;49.934;8.656;2023-11-19T03:43:38;3.53;;;3.10;;
24559;SDS011;12727;49.934;8.656;2023-11-19T03:46:04;5.38;;;3.55;;
24559;SDS011;12727;49.934;8.656;2023-11-19T03:48:30;4.10;;;3.28;;
24559;SDS011;12727;49.934;8.656;2023-11-19T03:50:56;4.60;;;3.35;;
24559;SDS011;12727;49.934;8.656;2023-11-19T03:53:22;4.13;;;3.60;;
24559;SDS011;12727;49.934;8.656;2023-11-19T03:55:49;4.25;;;3.05;;
24559;SDS011;12727;49.934;8.656;2023-11-19T03:58:15;3.85;;;3.28;;
24559;SDS011;12727;49.934;8.656;2023-11-19T04:00:40;4.25;;;3.40;;
24559;SDS011;12727;49.934;8.656;2023-11-19T04:03:06;6.03;;;3.70;;
24559;SDS011;12727;49.934;8.656;2023-11-19T04:05:31;4.60;;;3.70;;
24559;SDS011;12727;49.934;8.656;2023-11-19T04:07:57;5.07;;;3.80;;
24559;SDS011;12727;49.934;8.656;2023-11-19T04:10:23;4.50;;;4.00;;
24559;SDS011;12727;49.934;8.656;2023-11-19T04:12:48;5.25;;;4.30;;
24559;SDS011;12727;49.934;8.656;2023-11-19T04:15:14;5.45;;;4.40;;
24559;SDS011;12727;49.934;8.656;2023-11-19T04:17:40;5.60;;;4.40;;
24559;SDS011;12727;49.934;8.656;2023-11-19T04:20:06;4.72;;;4.13;;
24559;SDS011;12727;49.934;8.656;2023-11-19T04:22:36;4.60;;;4.10;;
24559;SDS011;12727;49.934;8.656;2023-11-19T04:25:01;5.90;;;4.30;;
24559;SDS011;12727;49.934;8.656;2023-11-19T04:27:27;6.28;;;5.10;;
24559;SDS011;12727;49.934;8.656;2023-11-19T04:29:52;6.53;;;5.47;;
24559;SDS011;12727;49.934;8.656;2023-11-19T04:32:18;7.20;;;6.00;;
24559;SDS011;12727;49.934;8.656;2023-11-19T04:34:44;6.82;;;5.60;;
24559;SDS011;12727;49.934;8.656;2023-11-19T04:37:09;7.15;;;5.78;;
24559;SDS011;12727;49.934;8.656;2023-11-19T04:39:35;6.25;;;5.53;;
24559;SDS011;12727;49.934;8.656;2023-11-19T04:42:02;8.20;;;5.93;;
24559;SDS011;12727;49.934;8.656;2023-11-19T04:44:29;5.97;;;5.35;;
24559;SDS011;12727;49.934;8.656;2023-11-19T04:46:55;7.50;;;5.90;;
24559;SDS011;12727;49.934;8.656;2023-11-19T04:49:20;10.18;;;5.95;;
24559;SDS011;12727;49.934;8.656;2023-11-19T04:51:46;6.00;;;5.22;;
24559;SDS011;12727;49.934;8.656;2023-11-19T04:54:12;6.30;;;5.63;;
24559;SDS011;12727;49.934;8.656;2023-11-19T04:56:37;6.18;;;5.10;;
24559;SDS011;12727;49.934;8.656;2023-11-19T04:59:03;8.13;;;5.55;;
24559;SDS011;12727;49.934;8.656;2023-11-19T05:01:30;6.35;;;5.28;;
24559;SDS011;12727;49.934;8.656;2023-11-19T05:03:56;5.53;;;4.75;;
24559;SDS011;12727;49.934;8.656;2023-11-19T05:06:26;5.90;;;5.30;;
24559;SDS011;12727;49.934;8.656;2023-11-19T05:08:55;6.85;;;5.15;;
24559;SDS011;12727;49.934;8.656;2023-11-19T05:11:22;6.05;;;5.30;;
24559;SDS011;12727;49.934;8.656;2023-11-19T05:13:47;7.82;;;5.63;;
24559;SDS011;12727;49.934;8.656;2023-11-19T05:16:13;8.00;;;5.40;;
24559;SDS011;12727;49.934;8.656;2023-11-19T05:18:40;8.43;;;6.70;;
24559;SDS011;12727;49.934;8.656;2023-11-19T05:21:06;8.35;;;6.88;;
24559;SDS011;12727;49.934;8.656;2023-11-19T05:23:34;8.43;;;6.35;;
24559;SDS011;12727;49.934;8.656;2023-11-19T05:26:02;8.52;;;6.57;;
24559;SDS011;12727;49.934;8.656;2023-11-19T05:28:28;6.72;;;6.03;;
24559;SDS011;12727;49.934;8.656;2023-11-19T05:30:54;7.65;;;6.25;;
24559;SDS011;12727;49.934;8.656;2023-11-19T05:33:20;6.93;;;5.95;;
24559;SDS011;12727;49.934;8.656;2023-11-19T05:35:46;7.80;;;6.03;;
24559;SDS011;12727;49.934;8.656;2023-11-19T05:38:12;6.88;;;6.18;;
24559;SDS011;12727;49.934;8.656;2023-11-19T05:40:38;8.65;;;5.60;;
24559;SDS011;12727;49.934;8.656;2023-11-19T05:43:04;7.57;;;6.50;;
24559;SDS011;12727;49.934;8.656;2023-11-19T05:45:30;8.48;;;6.15;;
24559;SDS011;12727;49.934;8.656;2023-11-19T05:47:57;7.25;;;5.78;;
24559;SDS011;12727;49.934;8.656;2023-11-19T05:50:22;7.97;;;6.78;;
24559;SDS011;12727;49.934;8.656;2023-11-19T05:52:48;8.82;;;6.47;;
24559;SDS011;12727;49.934;8.656;2023-11-19T05:55:14;7.78;;;6.32;;
24559;SDS011;12727;49.934;8.656;2023-11-19T05:57:39;6.78;;;5.88;;
24559;SDS011;12727;49.934;8.656;2023-11-19T06:00:06;8.45;;;6.35;;
24559;SDS011;12727;49.934;8.656;2023-11-19T06:02:33;8.55;;;7.40;;
24559;SDS011;12727;49.934;8.656;2023-11-19T06:04:59;9.48;;;7.47;;
24559;SDS011;12727;49.934;8.656;2023-11-19T06:07:25;7.72;;;6.13;;
24559;SDS011;12727;49.934;8.656;2023-11-19T06:09:51;9.25;;;7.18;;
24559;SDS011;12727;49.934;8.656;2023-11-19T06:12:17;9.27;;;6.90;;
24559;SDS011;12727;49.934;8.656;2023-11-19T06:14:42;10.23;;;7.07;;
24559;SDS011;12727;49.934;8.656;2023-11-19T06:17:08;9.43;;;7.60;;
24559;SDS011;12727;49.934;8.656;2023-11-19T06:19:36;11.00;;;8.05;;
24559;SDS011;12727;49.934;8.656;2023-11-19T06:22:03;9.77;;;8.18;;
24559;SDS011;12727;49.934;8.656;2023-11-19T06:24:28;9.50;;;7.80;;
24559;SDS011;12727;49.934;8.656;2023-11-19T06:26:54;11.75;;;7.40;;
24559;SDS011;12727;49.934;8.656;2023-11-19T06:29:20;9.75;;;7.43;;
24559;SDS011;12727;49.934;8.656;2023-11-19T06:31:45;7.82;;;6.25;;
24559;SDS011;12727;49.934;8.656;2023-11-19T06:34:13;7.97;;;6.35;;
24559;SDS011;12727;49.934;8.656;2023-11-19T06:36:39;9.68;;;7.03;;
24559;SDS011;12727;49.934;8.656;2023-11-19T06:39:06;9.73;;;7.25;;
24559;SDS011;12727;49.934;8.656;2023-11-19T06:41:31;10.50;;;7.00;;
24559;SDS011;12727;49.934;8.656;2023-11-19T06:43:57;10.60;;;7.13;;
24559;SDS011;12727;49.934;8.656;2023-11-19T06:46:22;9.90;;;7.30;;
24559;SDS011;12727;49.934;8.656;2023-11-19T06:48:48;9.25;;;6.75;;
24559;SDS011;12727;49.934;8.656;2023-11-19T06:51:14;8.77;;;7.07;;
24559;SDS011;12727;49.934;8.656;2023-11-19T06:53:40;9.55;;;7.68;;
24559;SDS011;12727;49.934;8.656;2023-11-19T06:56:19;10.68;;;7.40;;
24559;SDS011;12727;49.934;8.656;2023-11-19T06:58:48;8.98;;;7.22;;
24559;SDS011;12727;49.934;8.656;2023-11-19T07:01:15;10.88;;;7.97;;
24559;SDS011;12727;49.934;8.656;2023-11-19T07:03:41;10.57;;;8.68;;
24559;SDS011;12727;49.934;8.656;2023-11-19T07:06:07;8.98;;;7.75;;
24559;SDS011;12727;49.934;8.656;2023-11-19T07:08:33;11.77;;;8.25;;
24559;SDS011;12727;49.934;8.656;2023-11-19T07:10:59;10.82;;;7.93;;
24559;SDS011;12727;49.934;8.656;2023-11-19T07:13:25;9.88;;;8.52;;
24559;SDS011;12727;49.934;8.656;2023-11-19T07:15:52;12.27;;;8.70;;
24559;SDS011;12727;49.934;8.656;2023-11-19T07:18:19;14.23;;;9.30;;
24559;SDS011;12727;49.934;8.656;2023-11-19T07:20:47;10.77;;;8.32;;
24559;SDS011;12727;49.934;8.656;2023-11-19T07:23:13;10.65;;;7.75;;
24559;SDS011;12727;49.934;8.656;2023-11-19T07:25:41;11.82;;;7.43;;
24559;SDS011;12727;49.934;8.656;2023-11-19T07:28:08;11.18;;;7.80;;
24559;SDS011;12727;49.934;8.656;2023-11-19T07:30:35;9.65;;;7.20;;
24559;SDS011;12727;49.934;8.656;2023-11-19T07:33:01;9.93;;;7.30;;
24559;SDS011;12727;49.934;8.656;2023-11-19T07:35:28;12.18;;;6.95;;
24559;SDS011;12727;49.934;8.656;2023-11-19T07:37:55;9.00;;;7.10;;
24559;SDS011;12727;49.934;8.656;2023-11-19T07:40:22;9.63;;;7.07;;
24559;SDS011;12727;49.934;8.656;2023-11-19T07:42:48;8.02;;;6.70;;
24559;SDS011;12727;49.934;8.656;2023-11-19T07:45:14;8.10;;;6.68;;
24559;SDS011;12727;49.934;8.656;2023-11-19T07:47:39;7.45;;;6.10;;
24559;SDS011;12727;49.934;8.656;2023-11-19T07:50:05;7.72;;;4.75;;
24559;SDS011;12727;49.934;8.656;2023-11-19T07:52:31;6.28;;;4.75;;
24559;SDS011;12727;49.934;8.656;2023-11-19T07:54:56;6.63;;;5.32;;
24559;SDS011;12727;49.934;8.656;2023-11-19T07:57:22;6.93;;;5.40;;
24559;SDS011;12727;49.934;8.656;2023-11-19T07:59:49;6.78;;;4.55;;
24559;SDS011;12727;49.934;8.656;2023-11-19T08:02:14;6.43;;;5.07;;
24559;SDS011;12727;49.934;8.656;2023-11-19T08:04:40;6.38;;;3.70;;
24559;SDS011;12727;49.934;8.656;2023-11-19T08:07:10;4.15;;;3.20;;
24559;SDS011;12727;49.934;8.656;2023-11-19T08:09:36;3.53;;;2.45;;
24559;SDS011;12727;49.934;8.656;2023-11-19T08:12:02;4.07;;;2.72;;
24559;SDS011;12727;49.934;8.656;2023-11-19T08:14:28;2.33;;;1.70;;
24559;SDS011;12727;49.934;8.656;2023-11-19T08:16:54;2.83;;;1.42;;
24559;SDS011;12727;49.934;8.656;2023-11-19T08:19:19;3.00;;;1.20;;
24559;SDS011;12727;49.934;8.656;2023-11-19T08:21:45;2.83;;;1.10;;
24559;SDS011;12727;49.934;8.656;2023-11-19T08:24:11;2.60;;;1.50;;
24559;SDS011;12727;49.934;8.656;2023-11-19T08:26:36;2.83;;;1.17;;
24559;SDS011;12727;49.934;8.656;2023-11-19T08:29:02;3.70;;;1.10;;
24559;SDS011;12727;49.934;8.656;2023-11-19T08:31:28;1.90;;;0.95;;
24559;SDS011;12727;49.934;8.656;2023-11-19T08:33:53;2.95;;;1.13;;
24559;SDS011;12727;49.934;8.656;2023-11-19T08:36:19;1.33;;;0.70;;
24559;SDS011;12727;49.934;8.656;2023-11-19T08:38:45;1.88;;;0.90;;
24559;SDS011;12727;49.934;8.656;2023-11-19T08:41:11;4.68;;;1.48;;
24559;SDS011;12727;49.934;8.656;2023-11-19T08:43:37;2.60;;;1.33;;
24559;SDS011;12727;49.934;8.656;2023-11-19T08:46:04;4.63;;;1.40;;
24559;SDS011;12727;49.934;8.656;2023-11-19T08:48:34;3.65;;;1.35;;
24559;SDS011;12727;49.934;8.656;2023-11-19T08:51:00;2.53;;;1.48;;
24559;SDS011;12727;49.934;8.656;2023-11-19T08:53:26;4.90;;;1.83;;
24559;SDS011;12727;49.934;8.656;2023-11-19T08:55:51;2.22;;;1.52;;
24559;SDS011;12727;49.934;8.656;2023-11-19T08:58:17;4.72;;;1.80;;
24559;SDS011;12727;49.934;8.656;2023-11-19T09:00:43;2.15;;;1.50;;
24559;SDS011;12727;49.934;8.656;2023-11-19T09:03:09;5.68;;;1.50;;
24559;SDS011;12727;49.934;8.656;2023-11-19T09:05:34;4.72;;;1.85;;
24559;SDS011;12727;49.934;8.656;2023-11-19T09:08:00;2.97;;;1.48;;
24559;SDS011;12727;49.934;8.656;2023-11-19T09:10:26;4.78;;;1.35;;
24559;SDS011;12727;49.934;8.656;2023-11-19T09:12:52;3.47;;;1.60;;
24559;SDS011;12727;49.934;8.656;2023-11-19T09:15:18;5.28;;;1.70;;
24559;SDS011;12727;49.934;8.656;2023-11-19T09:17:43;2.85;;;1.30;;
24559;SDS011;12727;49.934;8.656;2023-11-19T09:20:10;4.60;;;1.98;;
24559;SDS011;12727;49.934;8.656;2023-11-19T09:22:39;6.53;;;2.30;;
24559;SDS011;12727;49.934;8.656;2023-11-19T09:25:05;4.95;;;2.25;;
24559;SDS011;12727;49.934;8.656;2023-11-19T09:27:31;5.15;;;1.52;;
24559;SDS011;12727;49.934;8.656;2023-11-19T09:29:57;4.53;;;1.60;;
24559;SDS011;12727;49.934;8.656;2023-11-19T09:32:23;6.28;;;1.45;;
24559;SDS011;12727;49.934;8.656;2023-11-19T09:34:49;3.17;;;1.10;;
24559;SDS011;12727;49.934;8.656;2023-11-19T09:37:15;1.65;;;0.77;;
24559;SDS011;12727;49.934;8.656;2023-11-19T09:39:41;2.92;;;0.95;;
24559;SDS011;12727;49.934;8.656;2023-11-19T09:42:09;4.13;;;0.90;;
24559;SDS011;12727;49.934;8.656;2023-11-19T09:44:36;2.97;;;0.85;;
24559;SDS011;12727;49.934;8.656;2023-11-19T09:47:07;4.28;;;0.93;;
24559;SDS011;12727;49.934;8.656;2023-11-19T09:49:35;5.38;;;1.10;;
24559;SDS011;12727;49.934;8.656;2023-11-19T09:52:01;3.53;;;0.70;;
24559;SDS011;12727;49.934;8.656;2023-11-19T09:54:27;3.85;;;0.95;;
24559;SDS011;12727;49.934;8.656;2023-11-19T09:56:53;2.97;;;0.80;;
24559;SDS011;12727;49.934;8.656;2023-11-19T09:59:25;2.70;;;0.70;;
24559;SDS011;12727;49.934;8.656;2023-11-19T10:01:51;3.63;;;0.75;;
24559;SDS011;12727;49.934;8.656;2023-11-19T10:04:17;4.75;;;0.90;;
24559;SDS011;12727;49.934;8.656;2023-11-19T10:06:44;3.10;;;0.88;;
24559;SDS011;12727;49.934;8.656;2023-11-19T10:09:11;5.60;;;1.00;;
24559;SDS011;12727;49.934;8.656;2023-11-19T10:11:38;5.13;;;0.85;;
24559;SDS011;12727;49.934;8.656;2023-11-19T10:14:06;4.05;;;0.90;;
24559;SDS011;12727;49.934;8.656;2023-11-19T10:16:34;2.90;;;0.88;;
24559;SDS011;12727;49.934;8.656;2023-11-19T10:19:00;6.47;;;1.35;;
24559;SDS011;12727;49.934;8.656;2023-11-19T10:21:25;5.97;;;1.10;;
24559;SDS011;12727;49.934;8.656;2023-11-19T10:23:53;7.07;;;1.10;;
24559;SDS011;12727;49.934;8.656;2023-11-19T10:26:22;7.65;;;1.30;;
24559;SDS011;12727;49.934;8.656;2023-11-19T10:28:48;6.10;;;1.27;;
24559;SDS011;12727;49.934;8.656;2023-11-19T10:31:17;6.45;;;1.23;;
24559;SDS011;12727;49.934;8.656;2023-11-19T10:33:44;3.47;;;1.13;;
24559;SDS011;12727;49.934;8.656;2023-11-19T10:36:13;4.47;;;1.17;;
24559;SDS011;12727;49.934;8.656;2023-11-19T10:38:39;5.68;;;1.30;;
24559;SDS011;12727;49.934;8.656;2023-11-19T10:41:06;6.50;;;0.93;;
24559;SDS011;12727;49.934;8.656;2023-11-19T10:43:42;6.45;;;1.33;;
24559;SDS011;12727;49.934;8.656;2023-11-19T10:46:13;6.55;;;1.45;;
24559;SDS011;12727;49.934;8.656;2023-11-19T10:48:39;5.40;;;1.05;;
24559;SDS011;12727;49.934;8.656;2023-11-19T10:51:05;7.18;;;0.93;;
24559;SDS011;12727;49.934;8.656;2023-11-19T10:53:33;4.88;;;1.23;;
24559;SDS011;12727;49.934;8.656;2023-11-19T10:56:02;4.13;;;0.95;;
24559;SDS011;12727;49.934;8.656;2023-11-19T10:58:33;5.95;;;1.20;;
24559;SDS011;12727;49.934;8.656;2023-11-19T11:01:03;7.10;;;1.25;;
24559;SDS011;12727;49.934;8.656;2023-11-19T11:03:39;3.80;;;0.90;;
24559;SDS011;12727;49.934;8.656;2023-11-19T11:06:08;5.82;;;1.30;;
24559;SDS011;12727;49.934;8.656;2023-11-19T11:08:35;4.75;;;1.10;;
24559;SDS011;12727;49.934;8.656;2023-11-19T11:11:02;8.23;;;1.35;;
24559;SDS011;12727;49.934;8.656;2023-11-19T11:13:29;5.18;;;1.48;;
24559;SDS011;12727;49.934;8.656;2023-11-19T11:15:57;5.20;;;1.23;;
24559;SDS011;12727;49.934;8.656;2023-11-19T11:18:23;4.28;;;1.08;;
24559;SDS011;12727;49.934;8.656;2023-11-19T11:20:54;4.15;;;1.10;;
24559;SDS011;12727;49.934;8.656;2023-11-19T11:26:06;5.38;;;1.20;;
24559;SDS011;12727;49.934;8.656;2023-11-19T11:28:49;7.82;;;1.20;;
24559;SDS011;12727;49.934;8.656;2023-11-19T11:31:26;4.65;;;1.00;;
24559;SDS011;12727;49.934;8.656;2023-11-19T11:34:04;4.82;;;1.00;;
24559;SDS011;12727;49.934;8.656;2023-11-19T11:39:39;3.10;;;1.00;;
24559;SDS011;12727;49.934;8.656;2023-11-19T11:50:08;5.43;;;1.35;;
24559;SDS011;12727;49.934;8.656;2023-11-19T11:55:36;3.75;;;0.95;;
24559;SDS011;12727;49.934;8.656;2023-11-19T11:58:17;4.03;;;1.02;;
24559;SDS011;12727;49.934;8.656;2023-11-19T12:00:43;7.15;;;1.10;;
24559;SDS011;12727;49.934;8.656;2023-11-19T12:03:11;4.00;;;0.90;;
24559;SDS011;12727;49.934;8.656;2023-11-19T12:05:43;4.80;;;1.08;;
24559;SDS011;12727;49.934;8.656;2023-11-19T12:08:10;7.57;;;1.05;;
24559;SDS011;12727;49.934;8.656;2023-11-19T12:10:46;4.68;;;1.67;;
24559;SDS011;12727;49.934;8.656;2023-11-19T12:13:13;4.20;;;0.77;;
24559;SDS011;12727;49.934;8.656;2023-11-19T12:18:28;2.13;;;0.80;;
24559;SDS011;12727;49.934;8.656;2023-11-19T12:20:57;9.20;;;1.10;;
24559;SDS011;12727;49.934;8.656;2023-11-19T12:23:30;7.22;;;0.90;;
24559;SDS011;12727;49.934;8.656;2023-11-19T12:25:57;5.55;;;0.90;;
24559;SDS011;12727;49.934;8.656;2023-11-19T12:28:23;5.40;;;1.23;;
24559;SDS011;12727;49.934;8.656;2023-11-19T12:30:52;7.90;;;1.38;;
24559;SDS011;12727;49.934;8.656;2023-11-19T12:33:18;5.32;;;1.90;;
24559;SDS011;12727;49.934;8.656;2023-11-19T12:35:46;6.72;;;1.42;;
24559;SDS011;12727;49.934;8.656;2023-11-19T12:40:48;7.47;;;1.42;;
24559;SDS011;12727;49.934;8.656;2023-11-19T12:43:38;4.75;;;1.45;;
24559;SDS011;12727;49.934;8.656;2023-11-19T12:46:23;6.35;;;0.98;;
24559;SDS011;12727;49.934;8.656;2023-11-19T12:48:49;6.25;;;1.33;;
24559;SDS011;12727;49.934;8.656;2023-11-19T12:51:15;3.05;;;0.88;;
24559;SDS011;12727;49.934;8.656;2023-11-19T12:53:51;6.55;;;1.08;;
24559;SDS011;12727;49.934;8.656;2023-11-19T12:56:20;6.10;;;1.02;;
24559;SDS011;12727;49.934;8.656;2023-11-19T12:58:46;7.53;;;1.20;;
24559;SDS011;12727;49.934;8.656;2023-11-19T13:01:15;5.35;;;1.13;;
24559;SDS011;12727;49.934;8.656;2023-11-19T13:03:43;3.97;;;0.80;;
24559;SDS011;12727;49.934;8.656;2023-11-19T13:06:09;5.90;;;0.80;;
24559;SDS011;12727;49.934;8.656;2023-11-19T13:08:48;7.57;;;1.10;;
24559;SDS011;12727;49.934;8.656;2023-11-19T13:11:32;7.43;;;1.00;;
24559;SDS011;12727;49.934;8.656;2023-11-19T13:14:00;3.65;;;0.75;;
24559;SDS011;12727;49.934;8.656;2023-11-19T13:16:33;10.55;;;1.08;;
24559;SDS011;12727;49.934;8.656;2023-11-19T13:19:01;8.13;;;1.40;;
24559;SDS011;12727;49.934;8.656;2023-11-19T13:21:27;4.80;;;1.10;;
24559;SDS011;12727;49.934;8.656;2023-11-19T13:23:54;5.97;;;1.40;;
24559;SDS011;12727;49.934;8.656;2023-11-19T13:26:20;7.28;;;1.13;;
24559;SDS011;12727;49.934;8.656;2023-11-19T13:28:46;4.45;;;0.90;;
24559;SDS011;12727;49.934;8.656;2023-11-19T13:31:12;5.47;;;0.90;;
24559;SDS011;12727;49.934;8.656;2023-11-19T13:33:37;8.82;;;1.38;;
24559;SDS011;12727;49.934;8.656;2023-11-19T13:36:04;3.75;;;0.90;;
24559;SDS011;12727;49.934;8.656;2023-11-19T13:38:36;7.35;;;1.02;;
24559;SDS011;12727;49.934;8.656;2023-11-19T13:41:05;7.03;;;1.42;;
24559;SDS011;12727;49.934;8.656;2023-11-19T13:43:31;8.82;;;1.60;;
24559;SDS011;12727;49.934;8.656;2023-11-19T13:45:56;7.93;;;1.13;;
24559;SDS011;12727;49.934;8.656;2023-11-19T13:48:23;6.60;;;1.25;;
24559;SDS011;12727;49.934;8.656;2023-11-19T13:50:49;5.47;;;1.10;;
24559;SDS011;12727;49.934;8.656;2023-11-19T13:53:15;5.90;;;1.20;;
24559;SDS011;12727;49.934;8.656;2023-11-19T13:55:41;6.68;;;1.35;;
24559;SDS011;12727;49.934;8.656;2023-11-19T13:58:08;9.27;;;1.90;;
24559;SDS011;12727;49.934;8.656;2023-11-19T14:00:34;4.97;;;1.13;;
24559;SDS011;12727;49.934;8.656;2023-11-19T14:03:00;7.93;;;1.67;;
24559;SDS011;12727;49.934;8.656;2023-11-19T14:05:25;6.40;;;1.20;;
24559;SDS011;12727;49.934;8.656;2023-11-19T14:07:51;7.53;;;1.15;;
24559;SDS011;12727;49.934;8.656;2023-11-19T14:10:18;6.75;;;1.45;;
24559;SDS011;12727;49.934;8.656;2023-11-19T14:12:44;7.20;;;1.50;;
24559;SDS011;12727;49.934;8.656;2023-11-19T14:15:10;10.35;;;2.28;;
24559;SDS011;12727;49.934;8.656;2023-11-19T14:17:37;6.25;;;1.70;;
24559;SDS011;12727;49.934;8.656;2023-11-19T14:20:04;6.65;;;1.73;;
24559;SDS011;12727;49.934;8.656;2023-11-19T14:22:40;6.68;;;1.60;;
24559;SDS011;12727;49.934;8.656;2023-11-19T14:25:06;8.52;;;1.92;;
24559;SDS011;12727;49.934;8.656;2023-11-19T14:27:34;10.80;;;1.60;;
24559;SDS011;12727;49.934;8.656;2023-11-19T14:30:01;9.43;;;1.38;;
24559;SDS011;12727;49.934;8.656;2023-11-19T14:32:27;11.00;;;1.60;;
24559;SDS011;12727;49.934;8.656;2023-11-19T14:34:53;9.82;;;1.27;;
24559;SDS011;12727;49.934;8.656;2023-11-19T14:37:19;4.97;;;1.23;;
24559;SDS011;12727;49.934;8.656;2023-11-19T14:39:44;8.27;;;1.13;;
24559;SDS011;12727;49.934;8.656;2023-11-19T14:42:11;7.63;;;1.33;;
24559;SDS011;12727;49.934;8.656;2023-11-19T14:44:36;10.00;;;1.67;;
24559;SDS011;12727;49.934;8.656;2023-11-19T14:47:02;9.27;;;1.52;;
24559;SDS011;12727;49.934;8.656;2023-11-19T14:49:28;9.35;;;1.75;;
24559;SDS011;12727;49.934;8.656;2023-11-19T14:51:53;6.65;;;1.83;;
24559;SDS011;12727;49.934;8.656;2023-11-19T14:54:19;5.50;;;1.67;;
24559;SDS011;12727;49.934;8.656;2023-11-19T14:56:44;9.77;;;2.10;;
24559;SDS011;12727;49.934;8.656;2023-11-19T14:59:10;7.57;;;1.63;;
24559;SDS011;12727;49.934;8.656;2023-11-19T15:01:36;7.85;;;1.48;;
24559;SDS011;12727;49.934;8.656;2023-11-19T15:04:01;7.57;;;1.05;;
24559;SDS011;12727;49.934;8.656;2023-11-19T15:06:27;6.78;;;1.05;;
24559;SDS011;12727;49.934;8.656;2023-11-19T15:08:53;6.00;;;1.13;;